Time;durP1;ratioP1;P1;durP2;ratioP2;P2;SDS_P1;SDS_P2;PMS_P1;PMS_P2;Temp;Humidity;BMP_temperature;BMP_pressure;BME280_temperature;BME280_humidity;BME280_pressure;Samples;Min_cycle;Max_cycle;Signal;HPM_P1;HPM_P2
2021/07/10 00:00:00;;;;;;;18.10;8.57;;;;;;;14.18;100.00;101159.83;125022;1093;64381;-78
2021/07/10 00:02:26;;;;;;;13.20;8.17;;;;;;;14.14;100.00;101160.39;124797;1093;65486;-79
2021/07/10 00:04:53;;;;;;;10.60;7.57;;;;;;;14.09;100.00;101158.30;125039;1091;64144;-78
2021/07/10 00:07:20;;;;;;;15.50;8.33;;;;;;;14.06;100.00;101163.98;124874;1093;64355;-78
2021/07/10 00:09:48;;;;;;;15.63;7.23;;;;;;;14.05;100.00;101159.67;124790;1093;64231;-78
2021/07/10 00:12:15;;;;;;;16.20;8.17;;;;;;;14.03;100.00;101161.70;124794;1093;64486;-78
2021/07/10 00:14:42;;;;;;;20.13;8.03;;;;;;;14.04;100.00;101155.34;125032;1093;64261;-78
2021/07/10 00:17:09;;;;;;;18.00;8.00;;;;;;;14.03;100.00;101148.36;124920;1093;64432;-78
2021/07/10 00:19:36;;;;;;;20.47;8.43;;;;;;;14.01;100.00;101151.20;124993;1093;64284;-80
2021/07/10 00:22:03;;;;;;;14.45;7.70;;;;;;;14.01;100.00;101145.88;125093;1093;64361;-80
2021/07/10 00:24:31;;;;;;;13.07;7.87;;;;;;;14.03;100.00;101151.03;124966;1093;64760;-80
2021/07/10 00:26:59;;;;;;;12.93;8.00;;;;;;;14.01;100.00;101155.72;124884;1092;64284;-78
2021/07/10 00:29:26;;;;;;;15.33;8.07;;;;;;;13.96;100.00;101142.10;125108;1093;64405;-79
2021/07/10 00:31:54;;;;;;;18.73;8.20;;;;;;;13.91;100.00;101140.00;125070;1091;64199;-79
2021/07/10 00:34:21;;;;;;;14.60;8.47;;;;;;;13.89;100.00;101147.36;125014;1093;64300;-78
2021/07/10 00:36:48;;;;;;;16.10;7.50;;;;;;;13.87;100.00;101144.86;124966;1093;64247;-79
2021/07/10 00:39:15;;;;;;;12.40;7.50;;;;;;;13.85;100.00;101144.22;124994;1093;64307;-79
2021/07/10 00:41:43;;;;;;;15.57;8.10;;;;;;;13.82;100.00;101136.61;125019;1092;64208;-79
2021/07/10 00:44:10;;;;;;;13.67;7.90;;;;;;;13.80;100.00;101140.48;125019;1093;65441;-79
2021/07/10 00:46:37;;;;;;;14.33;8.60;;;;;;;13.79;100.00;101126.33;125114;1091;64291;-78
2021/07/10 00:49:04;;;;;;;13.47;8.87;;;;;;;13.76;100.00;101129.34;124864;1092;64282;-78
2021/07/10 00:51:32;;;;;;;12.30;7.97;;;;;;;13.74;100.00;101128.70;124906;1092;64288;-78
2021/07/10 00:53:59;;;;;;;16.03;8.47;;;;;;;13.71;100.00;101113.09;125200;1093;64288;-79
2021/07/10 00:56:26;;;;;;;13.27;7.90;;;;;;;13.69;100.00;101120.44;125190;1092;64329;-79
2021/07/10 00:58:54;;;;;;;16.05;8.25;;;;;;;13.67;100.00;101111.80;125180;1093;64303;-79
2021/07/10 01:01:21;;;;;;;16.70;9.37;;;;;;;13.66;100.00;101113.64;124981;1092;64296;-79
2021/07/10 01:03:49;;;;;;;17.07;9.07;;;;;;;13.66;100.00;101110.98;125020;1092;64287;-78
2021/07/10 01:06:16;;;;;;;15.10;8.63;;;;;;;13.65;100.00;101119.16;124924;1092;64310;-78
2021/07/10 01:08:45;;;;;;;15.33;8.10;;;;;;;13.63;100.00;101119.33;125072;1092;64301;-79
2021/07/10 01:11:13;;;;;;;14.57;8.83;;;;;;;13.62;100.00;101124.84;125084;1093;64323;-79
2021/07/10 01:13:41;;;;;;;13.93;8.30;;;;;;;13.60;100.00;101126.86;125334;1093;64211;-79
2021/07/10 01:16:08;;;;;;;13.23;8.80;;;;;;;13.60;100.00;101127.71;125396;1092;64211;-79
2021/07/10 01:18:35;;;;;;;14.83;7.60;;;;;;;13.59;100.00;101125.22;125255;1093;64426;-80
2021/07/10 01:21:02;;;;;;;11.70;7.73;;;;;;;13.62;100.00;101130.17;124991;1091;64304;-79
2021/07/10 01:23:29;;;;;;;16.30;7.97;;;;;;;13.64;100.00;101128.15;125091;1093;64208;-81
2021/07/10 01:25:57;;;;;;;17.00;9.90;;;;;;;13.65;100.00;101127.16;125181;1092;64358;-79
2021/07/10 01:28:24;;;;;;;14.67;8.60;;;;;;;13.66;100.00;101126.98;124980;1093;64310;-79
2021/07/10 01:30:51;;;;;;;18.27;9.17;;;;;;;13.68;100.00;101124.11;124971;1093;64298;-79
2021/07/10 01:33:19;;;;;;;16.23;8.80;;;;;;;13.70;100.00;101129.27;124887;1093;64243;-78
2021/07/10 01:35:46;;;;;;;15.13;8.50;;;;;;;13.71;100.00;101123.75;125002;1092;64211;-79
2021/07/10 01:38:14;;;;;;;15.00;7.97;;;;;;;13.73;100.00;101126.21;125026;1092;64285;-79
2021/07/10 01:40:43;;;;;;;16.80;8.50;;;;;;;13.72;100.00;101114.73;125048;1092;64211;-79
2021/07/10 01:43:12;;;;;;;13.67;8.10;;;;;;;13.77;100.00;101122.16;124921;1093;64441;-80
2021/07/10 01:45:40;;;;;;;13.70;8.17;;;;;;;13.77;100.00;101116.83;125211;1093;64288;-79
2021/07/10 01:48:12;;;;;;;16.27;8.17;;;;;;;13.76;100.00;101118.67;125030;1093;64284;-79
2021/07/10 01:50:45;;;;;;;17.97;8.40;;;;;;;13.74;100.00;101120.70;125076;1093;64204;-78
2021/07/10 01:53:14;;;;;;;14.87;8.57;;;;;;;13.72;100.00;101114.73;125068;1093;64393;-78
2021/07/10 01:55:41;;;;;;;11.70;7.47;;;;;;;13.71;100.00;101123.75;125173;1093;64297;-78
2021/07/10 01:58:08;;;;;;;12.27;8.13;;;;;;;13.69;100.00;101112.45;125049;1092;64214;-78
2021/07/10 02:00:42;;;;;;;14.50;7.93;;;;;;;13.63;100.00;101108.67;124979;1093;64233;-79
2021/07/10 02:03:10;;;;;;;20.77;10.50;;;;;;;13.60;100.00;101113.53;124970;1093;64279;-78
2021/07/10 02:05:38;;;;;;;12.57;8.60;;;;;;;13.55;100.00;101108.77;125086;1093;64396;-79
2021/07/10 02:08:06;;;;;;;12.85;8.10;;;;;;;13.50;100.00;101100.50;125035;1093;64211;-80
2021/07/10 02:10:34;;;;;;;11.77;8.87;;;;;;;13.45;100.00;101108.20;125246;1093;64196;-80
2021/07/10 02:13:11;;;;;;;14.63;7.90;;;;;;;13.41;100.00;101113.09;125102;1093;64275;-80
2021/07/10 02:15:40;;;;;;;15.17;9.27;;;;;;;13.37;100.00;101106.47;125007;1093;64821;-78
2021/07/10 02:18:07;;;;;;;16.17;8.57;;;;;;;13.34;100.00;101101.50;125098;1091;64288;-81
2021/07/10 02:20:35;;;;;;;14.93;8.47;;;;;;;13.31;100.00;101099.21;125021;1093;64442;-79
2021/07/10 02:23:03;;;;;;;12.75;8.90;;;;;;;13.29;100.00;101098.56;124888;1092;64284;-79
2021/07/10 02:25:31;;;;;;;15.40;9.03;;;;;;;13.26;100.00;101099.73;125162;1092;64318;-79
2021/07/10 02:27:59;;;;;;;18.05;8.90;;;;;;;13.24;100.00;101111.59;125005;1093;64176;-78
2021/07/10 02:30:28;;;;;;;16.33;8.73;;;;;;;13.20;100.00;101111.11;124977;1092;64361;-79
2021/07/10 02:32:57;;;;;;;15.77;10.57;;;;;;;13.17;100.00;101115.97;125031;1092;64550;-79
2021/07/10 02:35:28;;;;;;;15.70;9.63;;;;;;;13.13;100.00;101109.34;125007;1093;64333;-79
2021/07/10 02:37:56;;;;;;;15.70;8.90;;;;;;;13.10;100.00;101115.05;125067;1093;64326;-78
2021/07/10 02:40:23;;;;;;;14.20;7.90;;;;;;;13.04;100.00;101114.75;125010;1092;64304;-79
2021/07/10 02:42:51;;;;;;;15.75;10.35;;;;;;;13.00;100.00;101116.11;125032;1093;64247;-79
2021/07/10 02:45:20;;;;;;;15.37;9.07;;;;;;;12.99;100.00;101119.80;125032;1093;64368;-80
2021/07/10 02:47:48;;;;;;;14.93;9.17;;;;;;;12.95;100.00;101115.84;125201;1091;64381;-80
2021/07/10 02:50:20;;;;;;;28.97;11.03;;;;;;;12.93;100.00;101115.19;125122;1093;64232;-79
2021/07/10 02:52:47;;;;;;;16.77;9.70;;;;;;;12.90;100.00;101114.71;125200;1093;64258;-81
2021/07/10 02:55:15;;;;;;;16.57;8.90;;;;;;;12.87;100.00;101107.92;125094;1092;64304;-79
2021/07/10 02:57:42;;;;;;;16.30;10.37;;;;;;;12.84;100.00;101105.63;125029;1091;64327;-79
2021/07/10 03:00:12;;;;;;;15.20;8.60;;;;;;;12.82;100.00;101097.81;124989;1092;64288;-79
2021/07/10 03:02:40;;;;;;;18.25;9.65;;;;;;;12.81;100.00;101100.64;125154;1093;64237;-79
2021/07/10 03:05:08;;;;;;;16.73;8.97;;;;;;;12.80;100.00;101101.67;125058;1093;64361;-80
2021/07/10 03:07:37;;;;;;;17.80;9.67;;;;;;;12.77;100.00;101094.88;125574;1092;64287;-80
2021/07/10 03:10:10;;;;;;;17.80;9.47;;;;;;;12.73;100.00;101084.73;127948;1093;64361;-79
2021/07/10 03:12:37;;;;;;;15.60;8.70;;;;;;;12.75;100.00;101090.71;125932;1093;64281;-78
2021/07/10 03:15:06;;;;;;;16.27;8.80;;;;;;;12.73;100.00;101092.72;125112;1093;64199;-79
2021/07/10 03:17:33;;;;;;;18.63;9.77;;;;;;;12.69;100.00;101094.94;124823;1093;64204;-78
2021/07/10 03:20:00;;;;;;;18.33;9.13;;;;;;;12.68;100.00;101092.45;125023;1093;64307;-80
2021/07/10 03:22:27;;;;;;;13.70;7.87;;;;;;;12.64;100.00;101100.80;125028;1093;64352;-78
2021/07/10 03:24:55;;;;;;;17.80;8.77;;;;;;;12.62;100.00;101089.50;124833;1093;64336;-80
2021/07/10 03:27:22;;;;;;;15.00;9.17;;;;;;;12.61;100.00;101092.34;125012;1092;64281;-81
2021/07/10 03:29:49;;;;;;;24.20;10.90;;;;;;;12.60;100.00;101091.52;124868;1093;64336;-79
2021/07/10 03:32:16;;;;;;;17.40;10.13;;;;;;;12.59;100.00;101097.83;125459;1092;64231;-79
2021/07/10 03:34:43;;;;;;;17.73;9.33;;;;;;;12.58;100.00;101088.20;125700;1093;64931;-79
2021/07/10 03:37:10;;;;;;;17.70;8.97;;;;;;;12.57;100.00;101083.05;125386;1093;64208;-78
2021/07/10 03:39:37;;;;;;;15.40;9.40;;;;;;;12.53;100.00;101093.22;125558;1093;64240;-79
2021/07/10 03:42:05;;;;;;;20.20;10.65;;;;;;;12.54;100.00;101097.55;125162;1093;64275;-78
2021/07/10 03:44:32;;;;;;;17.73;9.00;;;;;;;12.53;100.00;101098.54;125159;1093;64323;-78
2021/07/10 03:47:00;;;;;;;21.27;9.87;;;;;;;12.55;100.00;101101.85;124898;1093;64399;-79
2021/07/10 03:49:27;;;;;;;22.20;9.73;;;;;;;12.56;100.00;101100.86;125312;1093;64298;-80
2021/07/10 03:51:54;;;;;;;16.87;9.47;;;;;;;12.58;100.00;101104.17;124918;1093;64288;-77
2021/07/10 03:54:21;;;;;;;16.03;9.73;;;;;;;12.61;100.00;101108.30;124681;1093;64445;-78
2021/07/10 03:56:48;;;;;;;22.55;10.05;;;;;;;12.65;100.00;101097.13;124890;1093;64310;-80
2021/07/10 03:59:15;;;;;;;16.00;8.33;;;;;;;12.65;100.00;101091.80;125058;1092;64218;-80
2021/07/10 04:01:45;;;;;;;17.17;10.13;;;;;;;12.67;100.00;101088.14;125043;1093;65433;-78
2021/07/10 04:04:13;;;;;;;17.67;9.80;;;;;;;12.69;100.00;101080.78;124954;1093;64298;-78
2021/07/10 04:06:40;;;;;;;19.23;10.20;;;;;;;12.70;100.00;101083.27;124840;1093;64295;-78
2021/07/10 04:09:08;;;;;;;16.27;9.20;;;;;;;12.71;100.00;101084.09;124944;1093;64285;-79
2021/07/10 04:11:35;;;;;;;15.60;9.77;;;;;;;12.71;100.00;101089.41;125047;1092;64333;-81
2021/07/10 04:14:03;;;;;;;22.27;10.07;;;;;;;12.74;100.00;101089.07;125053;1092;64211;-79
2021/07/10 04:16:31;;;;;;;18.47;10.37;;;;;;;12.76;100.00;101087.06;125334;1093;64285;-80
2021/07/10 04:18:58;;;;;;;14.67;9.63;;;;;;;12.82;100.00;101089.00;125192;1092;64393;-80
2021/07/10 04:21:26;;;;;;;15.77;9.67;;;;;;;12.87;100.00;101078.63;125421;1092;64211;-80
2021/07/10 04:23:53;;;;;;;19.07;10.23;;;;;;;12.92;100.00;101083.41;124951;1092;64442;-81
2021/07/10 04:26:20;;;;;;;19.23;9.70;;;;;;;12.99;100.00;101085.18;125127;1093;64285;-78
2021/07/10 04:28:47;;;;;;;14.90;9.13;;;;;;;13.03;100.00;101083.81;125045;1093;64246;-78
2021/07/10 04:31:14;;;;;;;18.13;11.20;;;;;;;13.11;100.00;101084.72;125217;1093;64311;-78
2021/07/10 04:33:42;;;;;;;16.67;9.80;;;;;;;13.15;100.00;101075.36;125114;1092;64387;-78
2021/07/10 04:36:09;;;;;;;19.80;9.75;;;;;;;13.19;100.00;101077.48;125154;1093;64381;-78
2021/07/10 04:38:37;;;;;;;19.33;10.70;;;;;;;13.22;100.00;101074.47;124808;1091;64265;-79
2021/07/10 04:41:08;;;;;;;12.03;7.30;;;;;;;13.26;100.00;101082.92;125332;1092;64282;-80
2021/07/10 04:43:35;;;;;;;14.70;9.53;;;;;;;13.28;100.00;101088.87;124994;1093;64376;-77
2021/07/10 04:46:04;;;;;;;17.30;9.20;;;;;;;13.33;100.00;101081.20;125029;1093;64425;-78
2021/07/10 04:48:31;;;;;;;17.40;8.93;;;;;;;13.42;100.00;101092.59;125059;1093;64441;-78
2021/07/10 04:50:58;;;;;;;22.13;10.60;;;;;;;13.48;100.00;101097.20;125043;1092;64304;-78
2021/07/10 04:53:25;;;;;;;18.10;9.27;;;;;;;13.55;100.00;101098.09;125080;1093;64293;-79
2021/07/10 04:55:52;;;;;;;14.30;10.27;;;;;;;13.63;100.00;101091.86;125054;1092;64327;-78
2021/07/10 04:58:19;;;;;;;17.57;9.43;;;;;;;13.71;100.00;101097.09;125102;1093;64289;-78
2021/07/10 05:00:46;;;;;;;19.80;9.50;;;;;;;13.80;100.00;101101.30;125081;1093;64349;-79
2021/07/10 05:03:13;;;;;;;15.03;9.60;;;;;;;13.87;100.00;101096.86;125169;1092;64307;-78
2021/07/10 05:05:40;;;;;;;16.77;7.47;;;;;;;13.94;100.00;101102.30;125147;1093;64282;-78
2021/07/10 05:08:08;;;;;;;17.07;9.70;;;;;;;14.02;100.00;101099.50;125151;1093;64276;-78
2021/07/10 05:10:36;;;;;;;14.17;9.07;;;;;;;14.13;100.00;101100.03;124978;1093;64307;-78
2021/07/10 05:13:04;;;;;;;15.20;8.03;;;;;;;14.17;100.00;101102.13;125303;1093;64437;-78
2021/07/10 05:15:31;;;;;;;15.37;9.13;;;;;;;14.23;100.00;101101.38;125233;1093;64245;-79
2021/07/10 05:17:58;;;;;;;13.27;7.83;;;;;;;14.29;100.00;101105.14;125094;1093;64290;-79
2021/07/10 05:20:25;;;;;;;14.13;9.00;;;;;;;14.32;100.00;101114.60;125238;1093;64325;-79
2021/07/10 05:22:52;;;;;;;11.10;7.67;;;;;;;14.36;100.00;101111.36;125238;1093;64297;-78
2021/07/10 05:25:19;;;;;;;20.27;10.60;;;;;;;14.44;100.00;101113.09;124859;1093;64383;-79
2021/07/10 05:27:46;;;;;;;12.83;7.27;;;;;;;14.52;100.00;101102.30;125069;1091;64211;-79
2021/07/10 05:30:17;;;;;;;12.33;7.03;;;;;;;14.58;100.00;101106.09;125005;1093;65404;-78
2021/07/10 05:32:45;;;;;;;11.90;7.40;;;;;;;14.66;100.00;101093.43;125123;1093;64329;-78
2021/07/10 05:35:16;;;;;;;11.37;5.40;;;;;;;14.77;100.00;101101.91;125053;1092;64323;-77
2021/07/10 05:37:43;;;;;;;14.07;8.60;;;;;;;14.85;100.00;101102.63;124994;1092;64381;-79
2021/07/10 05:40:10;;;;;;;9.80;6.40;;;;;;;14.92;100.00;101105.34;124904;1092;64777;-78
2021/07/10 05:42:37;;;;;;;13.00;8.53;;;;;;;15.03;100.00;101104.81;124829;1092;64285;-78
2021/07/10 05:45:05;;;;;;;17.43;9.70;;;;;;;15.13;100.00;101100.96;125118;1093;64285;-78
2021/07/10 05:47:33;;;;;;;16.20;7.63;;;;;;;15.25;100.00;101104.75;125256;1092;64327;-77
2021/07/10 05:50:01;;;;;;;14.37;6.97;;;;;;;15.35;100.00;101099.88;125775;1093;64381;-79
2021/07/10 05:52:28;;;;;;;12.53;8.47;;;;;;;15.46;100.00;101106.52;126455;1093;64327;-80
2021/07/10 05:54:55;;;;;;;15.67;8.20;;;;;;;15.56;100.00;101095.48;125943;1092;64147;-78
2021/07/10 05:57:22;;;;;;;10.43;7.27;;;;;;;15.59;97.06;101100.42;124851;1092;64307;-78
2021/07/10 05:59:49;;;;;;;10.47;6.73;;;;;;;15.63;97.77;101094.47;124776;1093;64307;-78
2021/07/10 06:02:16;;;;;;;11.00;7.37;;;;;;;15.74;97.34;101093.11;124812;1092;64388;-78
2021/07/10 06:04:43;;;;;;;13.83;8.67;;;;;;;15.90;98.65;101092.77;124950;1092;64309;-77
2021/07/10 06:07:10;;;;;;;13.70;7.27;;;;;;;16.00;97.52;101099.59;124798;1093;64345;-77
2021/07/10 06:09:37;;;;;;;10.90;7.15;;;;;;;16.03;95.85;101099.20;125138;1093;64234;-77
2021/07/10 06:12:05;;;;;;;10.87;6.97;;;;;;;15.99;92.92;101098.77;124896;1092;64303;-78
2021/07/10 06:14:32;;;;;;;13.10;7.70;;;;;;;16.04;94.58;101098.16;124838;1091;64431;-78
2021/07/10 06:17:00;;;;;;;13.17;8.63;;;;;;;16.15;96.35;101105.63;125052;1092;64326;-77
2021/07/10 06:19:27;;;;;;;10.13;6.50;;;;;;;16.23;91.74;101110.77;124858;1093;64348;-77
2021/07/10 06:21:54;;;;;;;14.37;7.77;;;;;;;16.30;93.49;101114.31;124790;1093;64373;-77
2021/07/10 06:24:21;;;;;;;12.93;7.63;;;;;;;16.35;91.29;101110.20;124753;1092;64216;-77
2021/07/10 06:26:48;;;;;;;11.10;7.47;;;;;;;16.43;92.45;101112.69;124837;1093;64451;-77
2021/07/10 06:29:19;;;;;;;12.23;7.67;;;;;;;16.46;92.08;101112.27;124943;1092;64230;-77
2021/07/10 06:31:46;;;;;;;13.60;7.60;;;;;;;16.57;91.18;101118.88;124984;1093;64265;-78
2021/07/10 06:34:13;;;;;;;9.53;6.23;;;;;;;16.62;90.75;101114.57;125162;1092;64319;-78
2021/07/10 06:36:41;;;;;;;8.77;6.20;;;;;;;16.69;90.52;101123.42;124961;1093;64777;-80
2021/07/10 06:39:08;;;;;;;9.40;5.87;;;;;;;16.87;90.69;101124.69;125064;1093;64342;-75
2021/07/10 06:41:37;;;;;;;10.33;6.83;;;;;;;16.96;91.32;101119.95;124989;1093;64183;-73
2021/07/10 06:44:05;;;;;;;12.07;6.20;;;;;;;17.04;87.63;101120.59;124784;1093;64381;-74
2021/07/10 06:46:32;;;;;;;9.03;6.07;;;;;;;17.07;86.33;101125.52;124944;1093;64262;-73
2021/07/10 06:49:00;;;;;;;10.27;5.30;;;;;;;17.06;85.46;101129.22;124765;1092;64263;-74
2021/07/10 06:51:27;;;;;;;12.23;5.93;;;;;;;17.14;85.71;101119.34;124800;1093;64307;-74
2021/07/10 06:53:54;;;;;;;6.23;4.87;;;;;;;17.18;82.69;101126.75;124726;1092;64860;-75
2021/07/10 06:56:21;;;;;;;8.23;5.13;;;;;;;17.21;82.94;101120.14;124783;1093;65643;-74
2021/07/10 06:58:49;;;;;;;9.80;5.57;;;;;;;17.26;82.18;101128.41;124887;1093;64309;-73
2021/07/10 07:01:16;;;;;;;7.87;5.80;;;;;;;17.32;81.71;101124.89;124716;1092;64323;-74
2021/07/10 07:03:43;;;;;;;6.37;4.60;;;;;;;17.35;79.86;101120.96;124924;1093;64536;-72
2021/07/10 07:06:10;;;;;;;6.25;4.45;;;;;;;17.43;81.35;101124.23;124920;1093;64786;-72
2021/07/10 07:08:37;;;;;;;8.43;6.10;;;;;;;17.51;81.28;101118.66;124896;1093;64304;-73
2021/07/10 07:11:04;;;;;;;12.60;6.63;;;;;;;17.66;81.99;101128.28;124735;1093;64387;-74
2021/07/10 07:13:31;;;;;;;8.67;5.57;;;;;;;17.70;77.45;101121.47;124865;1093;64307;-72
2021/07/10 07:15:58;;;;;;;8.93;5.20;;;;;;;17.83;81.11;101121.47;125159;1093;64304;-73
2021/07/10 07:18:26;;;;;;;6.53;4.63;;;;;;;17.91;78.89;101126.60;124894;1092;64307;-73
2021/07/10 07:21:05;;;;;;;7.50;4.90;;;;;;;18.06;81.08;101128.17;124902;1093;64361;-73
2021/07/10 07:23:32;;;;;;;6.90;5.50;;;;;;;18.14;81.49;101123.38;124890;1093;64289;-73
2021/07/10 07:26:00;;;;;;;6.33;4.50;;;;;;;18.27;80.63;101124.34;124801;1093;64317;-73
2021/07/10 07:28:27;;;;;;;7.27;5.10;;;;;;;18.31;77.68;101123.69;124884;1093;64304;-74
2021/07/10 07:30:54;;;;;;;6.00;4.47;;;;;;;18.36;75.02;101122.23;124919;1093;64285;-73
2021/07/10 07:33:21;;;;;;;7.47;5.10;;;;;;;18.43;77.69;101118.47;124728;1093;64246;-74
2021/07/10 07:35:48;;;;;;;6.03;4.83;;;;;;;18.57;79.53;101124.56;124933;1092;64378;-73
2021/07/10 07:38:15;;;;;;;7.83;5.23;;;;;;;18.69;79.89;101117.45;124896;1092;64176;-73
2021/07/10 07:40:42;;;;;;;7.80;5.30;;;;;;;18.82;79.58;101121.93;124828;1093;64457;-73
2021/07/10 07:43:09;;;;;;;7.27;5.27;;;;;;;18.85;76.37;101123.35;124858;1092;64380;-74
2021/07/10 07:45:37;;;;;;;6.00;4.30;;;;;;;18.93;78.26;101123.08;124653;1093;64304;-74
2021/07/10 07:48:05;;;;;;;6.63;4.40;;;;;;;19.05;78.20;101124.02;124899;1093;65577;-74
2021/07/10 07:50:32;;;;;;;7.63;6.27;;;;;;;19.14;76.81;101109.23;124891;1092;64307;-73
2021/07/10 07:52:59;;;;;;;8.77;5.57;;;;;;;19.16;75.54;101109.02;124894;1093;64451;-73
2021/07/10 07:55:26;;;;;;;7.60;5.53;;;;;;;19.17;74.72;101110.68;124883;1093;64230;-73
2021/07/10 07:57:53;;;;;;;7.07;5.23;;;;;;;19.12;72.80;101099.75;124896;1093;65057;-74
2021/07/10 08:00:23;;;;;;;8.05;5.10;;;;;;;19.14;74.74;101109.23;124880;1093;64307;-73
2021/07/10 08:02:53;;;;;;;9.30;5.20;;;;;;;19.12;71.94;101105.94;125042;1092;64285;-73
2021/07/10 08:05:21;;;;;;;7.03;4.47;;;;;;;19.17;75.79;101104.45;124818;1093;64273;-73
2021/07/10 08:07:48;;;;;;;9.77;5.27;;;;;;;19.25;76.60;101113.05;125145;1093;64250;-73
2021/07/10 08:10:17;;;;;;;10.20;5.10;;;;;;;19.35;75.81;101109.86;124856;1092;64744;-74
2021/07/10 08:12:47;;;;;;;7.63;4.80;;;;;;;19.44;77.63;101097.75;124931;1093;64307;-74
2021/07/10 08:15:14;;;;;;;7.50;5.00;;;;;;;19.53;74.41;101101.81;125393;1092;64288;-73
2021/07/10 08:17:43;;;;;;;7.17;4.70;;;;;;;19.63;75.08;101100.45;124638;1093;64911;-74
2021/07/10 08:20:12;;;;;;;9.13;6.17;;;;;;;19.63;74.96;101108.53;125020;1093;64329;-73
2021/07/10 08:22:39;;;;;;;6.17;4.83;;;;;;;19.78;75.54;101094.72;124721;1093;64346;-74
2021/07/10 08:25:08;;;;;;;9.40;6.77;;;;;;;20.00;78.86;101095.88;124890;1093;64288;-74
2021/07/10 08:27:35;;;;;;;9.63;5.90;;;;;;;20.22;76.77;101096.19;124985;1093;64290;-73
2021/07/10 08:30:05;;;;;;;8.47;5.40;;;;;;;20.31;71.71;101097.50;124881;1093;64377;-75
2021/07/10 08:32:32;;;;;;;7.33;5.47;;;;;;;20.47;69.99;101095.22;124923;1093;64304;-74
2021/07/10 08:34:59;;;;;;;8.47;5.60;;;;;;;20.59;68.70;101103.34;124886;1092;64346;-72
2021/07/10 08:37:26;;;;;;;8.83;5.57;;;;;;;20.76;66.20;101093.52;124892;1093;64292;-74
2021/07/10 08:39:54;;;;;;;8.87;5.77;;;;;;;20.88;66.64;101102.45;124888;1092;64240;-73
2021/07/10 08:42:21;;;;;;;7.73;4.70;;;;;;;20.93;64.45;101099.89;124921;1093;64403;-75
2021/07/10 08:44:53;;;;;;;7.90;5.30;;;;;;;20.96;66.72;101098.59;125153;1093;64300;-74
2021/07/10 08:47:21;;;;;;;8.87;6.17;;;;;;;20.96;65.75;101093.20;124860;1092;64397;-72
2021/07/10 08:49:48;;;;;;;9.50;4.97;;;;;;;20.87;63.52;101100.81;124910;1093;64314;-74
2021/07/10 08:52:16;;;;;;;7.15;5.80;;;;;;;20.82;65.89;101097.17;124798;1092;64215;-72
2021/07/10 08:54:43;;;;;;;8.40;5.83;;;;;;;20.77;65.96;101095.18;124801;1091;64704;-74
2021/07/10 08:57:13;;;;;;;8.77;5.17;;;;;;;20.82;66.41;101091.77;124667;1093;64247;-74
2021/07/10 08:59:40;;;;;;;8.50;5.63;;;;;;;20.86;66.67;101093.77;124890;1092;64304;-74
2021/07/10 09:02:08;;;;;;;9.70;5.70;;;;;;;20.98;66.33;101088.39;124827;1093;64210;-72
2021/07/10 09:04:36;;;;;;;9.07;6.27;;;;;;;21.05;64.78;101097.17;124716;1092;65430;-72
2021/07/10 09:07:03;;;;;;;8.80;6.50;;;;;;;21.05;64.84;101097.17;124881;1093;64301;-73
2021/07/10 09:09:47;;;;;;;12.45;7.50;;;;;;;21.00;62.87;101088.17;124868;1093;64210;-73
2021/07/10 09:12:28;;;;;;;13.73;6.80;;;;;;;20.94;63.14;101088.03;124917;1093;64285;-73
2021/07/10 09:15:15;;;;;;;8.27;4.87;;;;;;;20.77;63.63;101087.91;124704;1093;64243;-73
2021/07/10 09:17:47;;;;;;;7.20;5.35;;;;;;;20.79;64.00;101092.25;124854;1093;64346;-71
2021/07/10 09:20:22;;;;;;;9.30;6.03;;;;;;;20.81;62.83;101084.76;124891;1093;64378;-72
2021/07/10 09:22:50;;;;;;;6.30;4.37;;;;;;;20.91;63.63;101088.52;125078;1093;64290;-73
2021/07/10 09:25:29;;;;;;;8.60;5.80;;;;;;;21.16;64.17;101084.73;124877;1093;64176;-74
2021/07/10 09:27:59;;;;;;;8.63;5.80;;;;;;;21.35;63.32;101080.02;124984;1093;64668;-72
2021/07/10 09:30:38;;;;;;;9.00;5.90;;;;;;;21.36;62.91;101079.80;124996;1093;64323;-74
2021/07/10 09:33:17;;;;;;;9.43;5.80;;;;;;;21.55;62.91;101075.09;125022;1093;64451;-73
2021/07/10 09:35:55;;;;;;;10.10;6.50;;;;;;;21.67;62.24;101082.33;124947;1093;64250;-72
2021/07/10 09:38:28;;;;;;;12.27;7.83;;;;;;;21.85;62.94;101074.06;124881;1093;65484;-74
2021/07/10 09:40:57;;;;;;;7.33;5.60;;;;;;;21.86;61.15;101075.69;125121;1093;64380;-72
2021/07/10 09:43:27;;;;;;;8.67;6.37;;;;;;;21.91;60.90;101083.06;124858;1093;64392;-72
2021/07/10 09:45:56;;;;;;;7.70;4.65;;;;;;;22.19;59.82;101080.36;125205;1093;64402;-73
2021/07/10 09:48:32;;;;;;;7.73;5.20;;;;;;;22.51;60.46;101070.94;125065;1093;64208;-75
2021/07/10 09:51:21;;;;;;;7.40;6.27;;;;;;;22.65;57.26;101077.63;124929;1093;64342;-72
2021/07/10 09:54:07;;;;;;;9.17;6.27;;;;;;;22.62;57.76;101072.73;124840;1093;64215;-73
2021/07/10 09:56:37;;;;;;;9.20;6.00;;;;;;;22.60;58.60;101072.16;124725;1093;64351;-73
2021/07/10 09:59:23;;;;;;;9.07;4.80;;;;;;;22.78;58.32;101073.77;124814;1093;64362;-74
2021/07/10 10:01:50;;;;;;;7.03;5.17;;;;;;;22.77;56.95;101070.26;124906;1093;64310;-73
2021/07/10 10:04:25;;;;;;;6.00;3.97;;;;;;;22.72;56.83;101078.30;124721;1093;64230;-72
2021/07/10 10:06:55;;;;;;;7.63;4.57;;;;;;;22.60;56.44;101064.86;124957;1093;64326;-72
2021/07/10 10:09:26;;;;;;;5.50;4.13;;;;;;;22.78;56.80;101058.39;124948;1093;64285;-73
2021/07/10 10:12:00;;;;;;;8.50;4.57;;;;;;;23.09;57.26;101056.14;124975;1092;65519;-74
2021/07/10 10:14:28;;;;;;;;;;;;;;;23.23;55.73;101056.61;125278;1093;64310;-75
2021/07/10 10:17:00;;;;;;;5.17;3.87;;;;;;;23.38;55.84;101045.97;124635;1093;65050;-73
2021/07/10 10:19:29;;;;;;;4.83;3.70;;;;;;;23.46;53.99;101050.14;124881;1093;64237;-72
2021/07/10 10:21:59;;;;;;;5.47;3.80;;;;;;;23.77;55.55;101045.91;124955;1092;65303;-74
2021/07/10 10:24:28;;;;;;;7.15;4.05;;;;;;;23.64;53.23;101051.69;124885;1093;65008;-75
2021/07/10 10:26:57;;;;;;;5.90;3.60;;;;;;;23.64;54.50;101042.75;124914;1093;64282;-74
2021/07/10 10:29:28;;;;;;;5.03;3.27;;;;;;;23.82;55.37;101026.17;124947;1093;64394;-73
2021/07/10 10:31:56;;;;;;;4.50;3.47;;;;;;;24.06;55.33;101031.30;124964;1093;64282;-73
2021/07/10 10:34:23;;;;;;;4.95;3.85;;;;;;;24.20;52.47;101035.20;124962;1093;64390;-73
2021/07/10 10:36:52;;;;;;;4.83;3.13;;;;;;;24.43;52.84;101025.91;124669;1093;64297;-72
2021/07/10 10:39:26;;;;;;;5.87;3.70;;;;;;;24.49;51.17;101032.23;124940;1093;64297;-73
2021/07/10 10:41:58;;;;;;;4.18;2.98;;;;;;;24.46;51.46;101027.27;124882;1093;64272;-73
2021/07/10 10:44:33;;;;;;;5.30;3.70;;;;;;;24.25;51.45;101029.00;125072;1093;64287;-73
2021/07/10 10:47:01;;;;;;;6.40;2.87;;;;;;;24.11;50.99;101034.05;124876;1093;65494;-77
2021/07/10 10:49:34;;;;;;;4.07;3.50;;;;;;;23.96;51.26;101021.98;124895;1093;64358;-75
2021/07/10 10:52:42;;;;;;;3.97;2.83;;;;;;;23.94;52.54;101017.90;124874;1093;64288;-73
2021/07/10 10:55:18;;;;;;;5.00;4.10;;;;;;;24.29;52.02;101028.25;124996;1092;64373;-73
2021/07/10 10:57:58;;;;;;;4.73;3.13;;;;;;;24.60;53.69;101028.50;125013;1093;64304;-73
2021/07/10 11:00:24;;;;;;;5.50;3.60;;;;;;;24.68;51.52;101017.17;127392;1093;63410;-73
2021/07/10 11:02:57;;;;;;;4.33;3.40;;;;;;;24.63;51.00;101022.58;124927;1093;64410;-73
2021/07/10 11:05:30;;;;;;;4.70;3.67;;;;;;;24.61;51.55;101019.30;125036;1093;64258;-74
2021/07/10 11:08:19;;;;;;;4.83;4.15;;;;;;;24.59;51.04;101029.59;125132;1092;64795;-74
2021/07/10 11:10:58;;;;;;;5.00;4.10;;;;;;;24.62;50.05;101012.78;125066;1093;64314;-74
2021/07/10 11:13:33;;;;;;;9.97;5.93;;;;;;;24.88;52.27;101010.23;125127;1093;64259;-73